createdAt,value
2023-05-10T00:00:03.687Z,616.00
2023-05-10T00:01:03.760Z,614.00
2023-05-10T00:02:03.861Z,616.00
2023-05-10T00:03:03.954Z,617.00
2023-05-10T00:04:03.996Z,617.00
2023-05-10T00:05:04.056Z,618.00
2023-05-10T00:06:04.070Z,614.00
2023-05-10T00:07:04.108Z,622.00
2023-05-10T00:08:04.167Z,620.00
2023-05-10T00:09:04.212Z,616.00
2023-05-10T00:10:04.299Z,618.00
2023-05-10T00:11:04.320Z,618.00
2023-05-10T00:12:04.358Z,616.00
2023-05-10T00:13:04.419Z,618.00
2023-05-10T00:14:04.540Z,620.00
2023-05-10T00:15:04.514Z,622.00
2023-05-10T00:16:04.594Z,619.00
2023-05-10T00:17:04.634Z,617.00
2023-05-10T00:18:04.736Z,612.00
2023-05-10T00:19:04.754Z,616.00
2023-05-10T00:20:04.808Z,614.00
2023-05-10T00:21:04.842Z,620.00
2023-05-10T00:22:04.898Z,615.00
2023-05-10T00:23:04.970Z,617.00
2023-05-10T00:24:05.035Z,622.00
2023-05-10T00:25:05.109Z,625.00
2023-05-10T00:26:05.127Z,618.00
2023-05-10T00:27:05.188Z,617.00
2023-05-10T00:28:05.217Z,613.00
2023-05-10T00:29:05.603Z,613.00
2023-05-10T00:30:05.304Z,621.00
2023-05-10T00:31:05.358Z,616.00
2023-05-10T00:32:05.430Z,614.00
2023-05-10T00:33:05.510Z,607.00
2023-05-10T00:34:05.501Z,608.00
2023-05-10T00:35:05.548Z,613.00
2023-05-10T00:36:05.649Z,616.00
2023-05-10T00:37:05.616Z,619.00
2023-05-10T00:38:05.649Z,619.00
2023-05-10T00:39:06.132Z,619.00
2023-05-10T00:40:05.685Z,616.00
2023-05-10T00:41:05.715Z,615.00
2023-05-10T00:42:05.723Z,618.00
2023-05-10T00:43:05.758Z,618.00
2023-05-10T00:44:05.824Z,618.00
2023-05-10T00:45:05.797Z,613.00
2023-05-10T00:46:05.864Z,616.00
2023-05-10T00:47:05.857Z,622.00
2023-05-10T00:48:05.909Z,619.00
2023-05-10T00:49:05.915Z,624.00
2023-05-10T00:50:05.947Z,623.00
2023-05-10T00:51:05.942Z,619.00
2023-05-10T00:52:05.951Z,622.00
2023-05-10T00:53:06.015Z,619.00
2023-05-10T00:54:06.066Z,623.00
2023-05-10T00:55:06.077Z,619.00
2023-05-10T00:56:06.171Z,616.00
2023-05-10T00:57:06.175Z,622.00
2023-05-10T00:58:06.187Z,625.00
2023-05-10T00:59:06.238Z,623.00
2023-05-10T01:00:06.273Z,620.00
2023-05-10T01:01:06.323Z,624.00
2023-05-10T01:02:06.343Z,621.00
2023-05-10T01:03:06.355Z,621.00
2023-05-10T01:04:06.341Z,622.00
2023-05-10T01:05:06.396Z,621.00
2023-05-10T01:06:06.385Z,627.00
2023-05-10T01:07:06.404Z,625.00
2023-05-10T01:08:06.438Z,620.00
2023-05-10T01:09:06.489Z,620.00
2023-05-10T01:10:06.533Z,623.00
2023-05-10T01:11:06.570Z,620.00
2023-05-10T01:12:06.748Z,623.00
2023-05-10T01:13:06.690Z,622.00
2023-05-10T01:14:06.693Z,624.00
2023-05-10T01:15:06.705Z,623.00
2023-05-10T01:16:06.794Z,623.00
2023-05-10T01:17:06.811Z,627.00
2023-05-10T01:18:06.790Z,624.00
2023-05-10T01:28:20.181Z,500.00
2023-05-10T01:29:20.017Z,500.00
2023-05-10T01:31:20.017Z,500.00
2023-05-10T01:32:19.982Z,500.00
2023-05-10T01:33:19.938Z,500.00
2023-05-10T01:34:19.963Z,499.00
2023-05-10T01:35:19.976Z,502.00
2023-05-10T01:36:19.951Z,502.00
2023-05-10T01:37:19.896Z,500.00
2023-05-10T01:38:19.895Z,500.00
2023-05-10T01:39:19.915Z,502.00
2023-05-10T01:40:19.914Z,500.00
2023-05-10T01:41:19.890Z,501.00
2023-05-10T01:42:19.917Z,503.00
2023-05-10T01:43:19.875Z,502.00
2023-05-10T01:44:19.874Z,504.00
2023-05-10T01:45:19.834Z,502.00
2023-05-10T01:46:19.883Z,504.00
2023-05-10T01:47:19.942Z,502.00
2023-05-10T01:48:19.927Z,502.00
2023-05-10T01:49:19.971Z,500.00
2023-05-10T01:50:20.086Z,501.00
2023-05-10T01:51:20.018Z,505.00
2023-05-10T01:52:20.007Z,508.00
2023-05-10T01:53:20.027Z,500.00
2023-05-10T01:54:20.024Z,505.00
2023-05-10T01:55:20.060Z,508.00
2023-05-10T01:56:20.107Z,505.00
2023-05-10T01:57:20.084Z,505.00
2023-05-10T01:58:20.101Z,510.00
2023-05-10T01:59:20.158Z,509.00
2023-05-10T02:00:20.143Z,503.00
2023-05-10T02:01:20.267Z,505.00
2023-05-10T02:02:20.196Z,509.00
2023-05-10T02:03:20.294Z,502.00
2023-05-10T02:04:20.277Z,504.00
2023-05-10T02:05:20.238Z,502.00
2023-05-10T02:06:20.296Z,505.00
2023-05-10T02:07:20.310Z,506.00
2023-05-10T02:08:20.348Z,504.00
2023-05-10T02:09:20.356Z,502.00
2023-05-10T02:10:20.389Z,506.00
2023-05-10T02:11:20.386Z,511.00
2023-05-10T02:12:20.396Z,506.00
2023-05-10T02:13:20.460Z,505.00
2023-05-10T02:14:20.472Z,512.00
2023-05-10T02:15:20.483Z,512.00
2023-05-10T02:16:20.543Z,505.00
2023-05-10T02:17:20.533Z,506.00
2023-05-10T02:18:20.590Z,504.00
2023-05-10T02:19:20.641Z,510.00
2023-05-10T02:20:20.661Z,508.00
2023-05-10T02:21:20.643Z,510.00
2023-05-10T02:22:20.700Z,513.00
2023-05-10T02:23:20.722Z,509.00
2023-05-10T02:24:20.775Z,510.00
2023-05-10T02:25:20.821Z,509.00
2023-05-10T02:26:20.751Z,504.00
2023-05-10T02:27:20.759Z,507.00
2023-05-10T02:28:20.812Z,509.00
2023-05-10T02:29:20.796Z,506.00
2023-05-10T02:30:20.822Z,505.00
2023-05-10T02:31:20.993Z,512.00
2023-05-10T02:32:20.882Z,509.00
2023-05-10T02:33:20.911Z,508.00
2023-05-10T02:34:20.920Z,504.00
2023-05-10T02:35:20.944Z,502.00
2023-05-10T02:36:20.964Z,506.00
2023-05-10T02:37:20.981Z,504.00
2023-05-10T02:38:20.992Z,504.00
2023-05-10T02:39:21.051Z,507.00
2023-05-10T02:40:21.079Z,503.00
2023-05-10T02:41:21.080Z,506.00
2023-05-10T02:42:21.111Z,506.00
2023-05-10T02:43:21.138Z,509.00
2023-05-10T02:44:21.151Z,508.00
2023-05-10T02:45:21.210Z,507.00
2023-05-10T02:46:21.231Z,507.00
2023-05-10T02:47:21.220Z,506.00
2023-05-10T02:48:21.236Z,509.00
2023-05-10T02:49:21.305Z,504.00
2023-05-10T02:50:21.315Z,505.00
2023-05-10T02:51:21.312Z,507.00
2023-05-10T02:52:21.343Z,505.00
2023-05-10T02:53:21.391Z,502.00
2023-05-10T02:54:21.447Z,504.00
2023-05-10T02:55:21.523Z,504.00
2023-05-10T02:56:21.493Z,507.00
2023-05-10T02:57:21.450Z,506.00
2023-05-10T02:58:21.522Z,507.00
2023-05-10T02:59:21.510Z,508.00
2023-05-10T03:00:21.521Z,505.00
2023-05-10T03:01:21.649Z,510.00
2023-05-10T03:02:21.596Z,515.00
2023-05-10T03:03:21.592Z,507.00
2023-05-10T03:04:21.730Z,506.00
2023-05-10T03:05:21.617Z,506.00
2023-05-10T03:06:21.641Z,505.00
2023-05-10T03:07:21.671Z,507.00
2023-05-10T03:08:21.652Z,505.00
2023-05-10T03:09:21.710Z,509.00
2023-05-10T03:10:21.752Z,507.00
2023-05-10T03:11:21.725Z,505.00
2023-05-10T03:12:21.749Z,509.00
2023-05-10T03:13:21.773Z,511.00
2023-05-10T03:14:21.786Z,506.00
2023-05-10T03:15:21.810Z,508.00
2023-05-10T03:16:21.836Z,505.00
2023-05-10T03:17:21.867Z,508.00
2023-05-10T03:18:21.859Z,504.00
2023-05-10T03:19:21.936Z,504.00
2023-05-10T03:20:21.930Z,508.00
2023-05-10T03:21:21.936Z,509.00
2023-05-10T03:22:21.968Z,512.00
2023-05-10T03:23:22.003Z,507.00
2023-05-10T03:24:22.069Z,508.00
2023-05-10T03:25:22.067Z,512.00
2023-05-10T03:26:22.066Z,510.00
2023-05-10T03:27:22.133Z,515.00
2023-05-10T03:28:22.159Z,513.00
2023-05-10T03:29:22.164Z,508.00
2023-05-10T03:30:22.189Z,507.00
2023-05-10T03:31:22.284Z,509.00
2023-05-10T03:32:22.317Z,509.00
2023-05-10T03:33:22.277Z,516.00
2023-05-10T03:34:22.301Z,510.00
2023-05-10T03:35:22.366Z,512.00
2023-05-10T03:36:22.341Z,512.00
2023-05-10T03:37:22.385Z,508.00
2023-05-10T03:38:22.437Z,507.00
2023-05-10T03:39:22.494Z,509.00
2023-05-10T03:40:22.431Z,507.00
2023-05-10T03:41:22.483Z,506.00
2023-05-10T03:42:22.503Z,508.00
2023-05-10T03:43:22.510Z,509.00
2023-05-10T03:44:22.713Z,507.00
2023-05-10T03:45:22.541Z,508.00
2023-05-10T03:46:22.577Z,505.00
2023-05-10T03:47:22.628Z,510.00
2023-05-10T03:48:22.630Z,509.00
2023-05-10T03:49:22.655Z,512.00
2023-05-10T03:50:22.684Z,515.00
2023-05-10T03:51:22.688Z,506.00
2023-05-10T03:52:22.742Z,509.00
2023-05-10T03:53:22.751Z,510.00
2023-05-10T03:54:22.824Z,510.00
2023-05-10T03:55:22.810Z,514.00
2023-05-10T03:56:22.831Z,511.00
2023-05-10T03:57:22.904Z,511.00
2023-05-10T03:58:22.918Z,513.00
2023-05-10T03:59:22.942Z,509.00
2023-05-10T04:00:22.971Z,513.00
2023-05-10T04:01:23.006Z,514.00
2023-05-10T04:02:23.136Z,511.00
2023-05-10T04:03:23.141Z,509.00
2023-05-10T04:04:23.127Z,508.00
2023-05-10T04:05:23.118Z,509.00
2023-05-10T04:06:23.161Z,506.00
2023-05-10T04:07:23.190Z,510.00
2023-05-10T04:08:23.205Z,505.00
2023-05-10T04:09:23.266Z,503.00
2023-05-10T04:10:23.284Z,501.00
2023-05-10T04:11:23.298Z,501.00
2023-05-10T04:12:23.317Z,504.00
2023-05-10T04:13:23.506Z,506.00
2023-05-10T04:14:23.428Z,504.00
2023-05-10T04:15:23.380Z,509.00
2023-05-10T04:16:23.447Z,510.00
2023-05-10T04:17:23.461Z,504.00
2023-05-10T04:18:23.476Z,508.00
2023-05-10T04:19:23.468Z,506.00
2023-05-10T04:20:23.469Z,500.00
2023-05-10T04:21:23.514Z,503.00
2023-05-10T04:22:23.528Z,503.00
2023-05-10T04:23:23.578Z,509.00
2023-05-10T04:24:23.589Z,503.00
2023-05-10T04:25:23.644Z,504.00
2023-05-10T04:26:23.684Z,506.00
2023-05-10T04:27:23.665Z,505.00
2023-05-10T04:28:23.697Z,504.00
2023-05-10T04:29:23.747Z,503.00
2023-05-10T04:30:23.789Z,504.00
2023-05-10T04:31:23.956Z,507.00
2023-05-10T04:32:23.815Z,506.00
2023-05-10T04:33:23.821Z,502.00
2023-05-10T04:34:23.863Z,504.00
2023-05-10T04:35:23.907Z,500.00
2023-05-10T04:36:23.914Z,502.00
2023-05-10T04:37:23.992Z,504.00
2023-05-10T04:38:23.966Z,501.00
2023-05-10T04:39:24.018Z,505.00
2023-05-10T04:40:24.049Z,504.00
2023-05-10T04:41:24.074Z,505.00
2023-05-10T04:42:24.087Z,506.00
2023-05-10T04:43:24.085Z,508.00
2023-05-10T04:44:24.145Z,506.00
2023-05-10T04:45:24.166Z,509.00
2023-05-10T04:46:24.260Z,510.00
2023-05-10T04:47:24.229Z,507.00
2023-05-10T04:48:24.270Z,504.00
2023-05-10T04:49:24.308Z,505.00
2023-05-10T04:50:24.319Z,503.00
2023-05-10T04:51:24.388Z,507.00
2023-05-10T04:52:24.417Z,502.00
2023-05-10T04:53:24.397Z,504.00
2023-05-10T04:54:24.512Z,505.00
2023-05-10T04:55:24.449Z,512.00
2023-05-10T04:56:24.480Z,509.00
2023-05-10T04:57:24.541Z,504.00
2023-05-10T04:58:24.523Z,503.00
2023-05-10T04:59:24.557Z,504.00
2023-05-10T05:00:24.558Z,508.00
2023-05-10T05:01:24.609Z,505.00
2023-05-10T05:02:24.747Z,512.00
2023-05-10T05:03:24.774Z,512.00
2023-05-10T05:04:24.695Z,507.00
2023-05-10T05:05:24.729Z,508.00
2023-05-10T05:06:24.729Z,514.00
2023-05-10T05:07:24.761Z,511.00
2023-05-10T05:08:24.757Z,508.00
2023-05-10T05:09:24.833Z,506.00
2023-05-10T05:10:24.808Z,508.00
2023-05-10T05:11:24.806Z,506.00
2023-05-10T05:12:24.884Z,507.00
2023-05-10T05:13:24.940Z,508.00
2023-05-10T05:14:25.267Z,509.00
2023-05-10T05:15:24.947Z,509.00
2023-05-10T05:16:25.065Z,510.00
2023-05-10T05:17:25.047Z,509.00
2023-05-10T05:18:25.081Z,512.00
2023-05-10T05:19:25.104Z,511.00
2023-05-10T05:20:25.091Z,512.00
2023-05-10T05:21:25.187Z,511.00
2023-05-10T05:22:25.127Z,511.00
2023-05-10T05:23:25.187Z,510.00
2023-05-10T05:24:25.309Z,510.00
2023-05-10T05:25:25.207Z,512.00
2023-05-10T05:26:25.263Z,510.00
2023-05-10T05:27:25.342Z,508.00
2023-05-10T05:28:25.349Z,506.00
2023-05-10T05:29:25.341Z,502.00
2023-05-10T05:30:25.307Z,510.00
2023-05-10T05:31:25.481Z,507.00
2023-05-10T05:32:25.438Z,511.00
2023-05-10T05:33:25.366Z,503.00
2023-05-10T05:34:25.486Z,502.00
2023-05-10T05:35:25.412Z,504.00
2023-05-10T05:36:25.486Z,518.00
2023-05-10T05:37:25.643Z,559.00
2023-05-10T05:38:25.461Z,558.00
2023-05-10T05:39:25.529Z,567.00
2023-05-10T05:40:25.595Z,579.00
2023-05-10T05:41:25.562Z,617.00
2023-05-10T05:42:25.580Z,636.00
2023-05-10T05:43:25.571Z,658.00
2023-05-10T05:44:25.642Z,683.00
2023-05-10T05:45:25.621Z,700.00
2023-05-10T05:46:25.806Z,767.00
2023-05-10T05:47:25.693Z,825.00
2023-05-10T05:48:25.754Z,871.00
2023-05-10T05:49:25.809Z,920.00
2023-05-10T05:50:25.922Z,968.00
2023-05-10T05:51:25.927Z,1021.00
2023-05-10T05:52:25.976Z,1069.00
2023-05-10T05:53:26.048Z,1072.00
2023-05-10T05:54:26.112Z,1080.00
2023-05-10T05:55:26.106Z,1105.00
2023-05-10T05:56:26.169Z,1141.00
2023-05-10T05:57:26.176Z,1166.00
2023-05-10T05:58:26.280Z,1177.00
2023-05-10T05:59:26.304Z,1184.00
2023-05-10T06:00:26.337Z,1189.00
2023-05-10T06:01:26.347Z,1181.00
2023-05-10T06:02:27.305Z,1186.00
2023-05-10T06:03:26.394Z,1194.00
2023-05-10T06:04:26.439Z,1199.00
2023-05-10T06:05:26.372Z,1231.00
2023-05-10T06:06:26.395Z,1220.00
2023-05-10T06:07:26.352Z,1201.00
2023-05-10T06:08:26.381Z,1245.00
2023-05-10T06:09:26.436Z,1256.00
2023-05-10T06:10:26.456Z,1252.00
2023-05-10T06:11:26.434Z,1270.00
2023-05-10T06:12:26.398Z,1242.00
2023-05-10T06:13:26.427Z,1236.00
2023-05-10T06:14:26.461Z,1232.00
2023-05-10T06:15:26.402Z,1262.00
2023-05-10T06:16:26.404Z,1264.00
2023-05-10T06:17:26.490Z,1253.00
2023-05-10T06:18:26.399Z,1264.00
2023-05-10T06:19:26.448Z,1249.00
2023-05-10T06:20:26.724Z,1245.00
2023-05-10T06:21:26.529Z,1225.00
2023-05-10T06:22:26.584Z,1196.00
2023-05-10T06:23:26.583Z,1193.00
2023-05-10T06:24:26.620Z,1170.00
2023-05-10T06:25:26.684Z,1179.00
2023-05-10T06:26:26.703Z,1194.00
2023-05-10T06:27:26.764Z,1142.00
2023-05-10T06:28:26.838Z,1140.00
2023-05-10T06:29:26.990Z,1155.00
2023-05-10T06:30:26.964Z,1157.00
2023-05-10T06:31:27.041Z,1114.00
2023-05-10T06:32:27.094Z,1138.00
2023-05-10T06:33:27.114Z,1110.00
2023-05-10T06:34:27.213Z,1116.00
2023-05-10T06:35:27.223Z,1089.00
2023-05-10T06:36:27.359Z,1118.00
2023-05-10T06:37:27.386Z,1086.00
2023-05-10T06:38:27.470Z,1058.00
2023-05-10T06:39:27.828Z,1034.00
2023-05-10T06:40:27.618Z,1032.00
2023-05-10T06:41:27.578Z,966.00
2023-05-10T06:42:27.651Z,911.00
2023-05-10T06:43:27.695Z,953.00
2023-05-10T06:44:27.876Z,907.00
2023-05-10T06:45:27.831Z,809.00
2023-05-10T06:46:27.993Z,811.00
2023-05-10T06:47:28.050Z,813.00
2023-05-10T06:48:28.088Z,748.00
2023-05-10T06:49:28.051Z,696.00
2023-05-10T06:50:28.090Z,690.00
2023-05-10T06:51:28.202Z,669.00
2023-05-10T06:52:28.244Z,676.00
2023-05-10T06:53:28.307Z,652.00
2023-05-10T06:54:28.378Z,662.00
2023-05-10T06:55:28.382Z,637.00
2023-05-10T06:56:28.442Z,659.00
2023-05-10T06:57:31.773Z,659.00
2023-05-10T06:58:28.456Z,645.00
2023-05-10T06:59:28.548Z,634.00
2023-05-10T07:00:28.556Z,642.00
2023-05-10T07:01:28.574Z,648.00
2023-05-10T07:02:28.479Z,653.00
2023-05-10T07:03:28.477Z,654.00
2023-05-10T07:04:28.511Z,666.00
2023-05-10T07:05:28.493Z,648.00
2023-05-10T07:06:33.372Z,645.00
2023-05-10T07:07:29.451Z,645.00
2023-05-10T07:08:28.392Z,648.00
2023-05-10T07:09:28.365Z,648.00
2023-05-10T07:10:28.378Z,645.00
2023-05-10T07:11:28.381Z,645.00
2023-05-10T07:12:28.394Z,655.00
2023-05-10T07:13:28.497Z,655.00
2023-05-10T07:14:28.350Z,665.00
2023-05-10T07:15:28.451Z,677.00
2023-05-10T07:16:28.576Z,706.00
2023-05-10T07:17:28.662Z,692.00
2023-05-10T07:18:28.667Z,737.00
2023-05-10T07:19:28.659Z,712.00
2023-05-10T07:20:28.721Z,708.00
2023-05-10T07:21:28.795Z,742.00
2023-05-10T07:22:28.863Z,737.00
2023-05-10T07:23:28.946Z,719.00
2023-05-10T07:24:29.041Z,760.00
2023-05-10T07:25:29.022Z,758.00
2023-05-10T07:26:29.072Z,741.00
2023-05-10T07:27:29.140Z,756.00
2023-05-10T07:28:29.288Z,793.00
2023-05-10T07:29:29.266Z,781.00
2023-05-10T07:30:29.366Z,792.00
2023-05-10T07:31:29.416Z,699.00
2023-05-10T07:32:29.932Z,639.00
2023-05-10T07:33:29.514Z,600.00
2023-05-10T07:34:29.552Z,594.00
2023-05-10T07:35:29.564Z,587.00
2023-05-10T07:36:29.602Z,614.00
2023-05-10T07:37:29.563Z,615.00
2023-05-10T07:38:29.543Z,620.00
2023-05-10T07:39:29.533Z,621.00
2023-05-10T07:40:29.869Z,627.00
2023-05-10T07:41:29.521Z,671.00
2023-05-10T07:42:29.510Z,695.00
2023-05-10T07:43:29.504Z,733.00
2023-05-10T07:44:29.542Z,777.00
2023-05-10T07:45:29.588Z,795.00
2023-05-10T07:46:29.566Z,839.00
2023-05-10T07:47:29.513Z,824.00
2023-05-10T07:48:29.547Z,894.00
2023-05-10T07:49:29.609Z,885.00
2023-05-10T07:50:29.739Z,957.00
2023-05-10T07:51:29.747Z,1015.00
2023-05-10T07:52:29.740Z,1016.00
2023-05-10T07:53:29.807Z,1066.00
2023-05-10T07:54:30.338Z,1056.00
2023-05-10T07:55:29.894Z,1076.00
2023-05-10T07:56:29.917Z,1075.00
2023-05-10T07:57:29.977Z,1112.00
2023-05-10T07:58:30.060Z,1182.00
2023-05-10T07:59:30.154Z,1180.00
2023-05-10T08:00:30.071Z,1216.00
2023-05-10T08:01:30.147Z,1223.00
2023-05-10T08:02:30.257Z,1243.00
2023-05-10T08:03:30.297Z,1287.00
2023-05-10T08:04:30.317Z,1336.00
2023-05-10T08:05:30.242Z,1390.00
2023-05-10T08:06:30.297Z,1414.00
2023-05-10T08:07:30.316Z,1422.00
2023-05-10T08:08:30.328Z,1436.00
2023-05-10T08:09:30.382Z,1452.00
2023-05-10T08:10:30.414Z,1469.00
2023-05-10T08:11:30.411Z,1491.00
2023-05-10T08:12:30.439Z,1507.00
2023-05-10T08:13:30.453Z,1460.00
2023-05-10T08:14:30.480Z,1232.00
2023-05-10T08:15:30.523Z,1140.00
2023-05-10T08:16:30.832Z,1042.00
2023-05-10T08:17:30.632Z,1024.00
2023-05-10T08:18:30.772Z,954.00
2023-05-10T08:19:30.695Z,891.00
2023-05-10T08:20:30.844Z,823.00
2023-05-10T08:21:30.787Z,748.00
2023-05-10T08:22:30.840Z,682.00
2023-05-10T08:23:30.915Z,659.00
2023-05-10T08:24:30.981Z,661.00
2023-05-10T08:25:31.011Z,660.00
2023-05-10T08:26:31.053Z,663.00
2023-05-10T08:27:32.156Z,650.00
2023-05-10T08:28:31.195Z,651.00
2023-05-10T08:29:42.368Z,645.00
2023-05-10T08:30:32.232Z,645.00
2023-05-10T08:31:31.264Z,648.00
2023-05-10T08:32:31.250Z,652.00
2023-05-10T08:33:31.220Z,642.00
2023-05-10T08:34:31.200Z,644.00
2023-05-10T08:35:31.191Z,648.00
2023-05-10T08:36:31.171Z,697.00
2023-05-10T08:37:31.172Z,688.00
2023-05-10T08:38:31.170Z,646.00
2023-05-10T08:39:31.240Z,638.00
2023-05-10T08:40:31.292Z,626.00
2023-05-10T08:41:31.183Z,613.00
2023-05-10T08:42:31.145Z,613.00
2023-05-10T08:43:31.419Z,616.00
2023-05-10T08:44:31.172Z,569.00
2023-05-10T08:45:31.329Z,527.00
2023-05-10T08:46:31.188Z,504.00
2023-05-10T08:47:31.153Z,503.00
2023-05-10T08:48:31.105Z,517.00
2023-05-10T08:49:31.124Z,508.00
2023-05-10T08:50:31.331Z,514.00
2023-05-10T08:51:31.120Z,507.00
2023-05-10T08:52:31.104Z,511.00
2023-05-10T08:53:31.074Z,501.00
2023-05-10T08:54:31.825Z,510.00
2023-05-10T08:55:31.150Z,511.00
2023-05-10T08:56:31.073Z,527.00
2023-05-10T08:57:31.093Z,541.00
2023-05-10T08:58:31.185Z,547.00
2023-05-10T08:59:31.180Z,563.00
2023-05-10T09:00:31.392Z,591.00
2023-05-10T09:01:31.252Z,609.00
2023-05-10T09:02:31.286Z,619.00
2023-05-10T09:03:31.228Z,628.00
2023-05-10T09:04:31.276Z,655.00
2023-05-10T09:05:31.334Z,674.00
2023-05-10T09:06:31.213Z,668.00
2023-05-10T09:07:31.250Z,666.00
2023-05-10T09:08:31.227Z,664.00
2023-05-10T09:09:31.270Z,671.00
2023-05-10T09:10:31.385Z,665.00
2023-05-10T09:11:31.373Z,659.00
2023-05-10T09:12:31.455Z,628.00
2023-05-10T09:13:31.498Z,636.00
2023-05-10T09:14:31.571Z,617.00
2023-05-10T09:15:31.626Z,628.00
2023-05-10T09:16:31.703Z,640.00
2023-05-10T09:17:31.944Z,663.00
2023-05-10T09:18:31.824Z,657.00
2023-05-10T09:19:31.845Z,665.00
2023-05-10T09:20:31.882Z,684.00
2023-05-10T09:21:31.946Z,648.00
2023-05-10T09:22:32.014Z,633.00
2023-05-10T09:23:32.027Z,628.00
2023-05-10T09:24:32.090Z,593.00
2023-05-10T09:25:32.159Z,600.00
2023-05-10T09:26:32.191Z,594.00
2023-05-10T09:27:32.263Z,565.00
2023-05-10T09:28:32.282Z,507.00
2023-05-10T09:29:32.312Z,524.00
2023-05-10T09:30:32.380Z,509.00
2023-05-10T09:31:32.362Z,507.00
2023-05-10T09:32:32.387Z,498.00
2023-05-10T09:33:32.429Z,509.00
2023-05-10T09:34:32.344Z,541.00
2023-05-10T09:35:32.360Z,512.00
2023-05-10T09:36:32.394Z,527.00
2023-05-10T09:37:32.382Z,528.00
2023-05-10T09:38:32.432Z,535.00
2023-05-10T09:39:32.456Z,555.00
2023-05-10T09:40:32.465Z,564.00
2023-05-10T09:41:32.588Z,567.00
2023-05-10T09:42:32.425Z,565.00
2023-05-10T09:43:32.414Z,586.00
2023-05-10T09:44:32.425Z,574.00
2023-05-10T09:45:32.444Z,585.00
2023-05-10T09:46:32.487Z,578.00
2023-05-10T09:47:32.446Z,578.00
2023-05-10T09:48:32.412Z,590.00
2023-05-10T09:49:32.422Z,594.00
2023-05-10T09:50:32.891Z,598.00
2023-05-10T09:51:32.461Z,607.00
2023-05-10T09:52:32.487Z,659.00
2023-05-10T09:53:33.396Z,686.00
2023-05-10T09:54:32.618Z,644.00
2023-05-10T09:55:32.683Z,576.00
2023-05-10T09:56:32.732Z,605.00
2023-05-10T09:57:34.644Z,572.00
2023-05-10T09:58:32.835Z,566.00
2023-05-10T09:59:32.914Z,504.00
2023-05-10T10:00:32.975Z,491.00
2023-05-10T10:01:33.029Z,509.00
2023-05-10T10:02:33.033Z,531.00
2023-05-10T10:03:33.028Z,542.00
2023-05-10T10:04:33.244Z,539.00
2023-05-10T10:05:33.038Z,528.00
2023-05-10T10:06:33.041Z,553.00
2023-05-10T10:07:33.050Z,541.00
2023-05-10T10:08:33.043Z,542.00
2023-05-10T10:09:33.078Z,567.00
2023-05-10T10:10:33.489Z,563.00
2023-05-10T10:11:33.034Z,556.00
2023-05-10T10:12:33.088Z,605.00
2023-05-10T10:13:33.062Z,626.00
2023-05-10T10:14:33.099Z,633.00
2023-05-10T10:15:33.129Z,562.00
2023-05-10T10:16:33.186Z,546.00
2023-05-10T10:17:33.197Z,558.00
2023-05-10T10:18:33.222Z,571.00
2023-05-10T10:19:33.181Z,591.00
2023-05-10T10:20:33.258Z,594.00
2023-05-10T10:21:33.225Z,602.00
2023-05-10T10:22:33.330Z,635.00
2023-05-10T10:23:33.368Z,670.00
2023-05-10T10:24:33.389Z,659.00
2023-05-10T10:25:33.516Z,640.00
2023-05-10T10:26:33.531Z,649.00
2023-05-10T10:27:33.652Z,687.00
2023-05-10T10:28:33.755Z,739.00
2023-05-10T10:29:33.703Z,800.00
2023-05-10T10:30:33.770Z,655.00
2023-05-10T10:31:33.949Z,690.00
2023-05-10T10:32:33.899Z,699.00
2023-05-10T10:33:34.050Z,664.00
2023-05-10T10:34:34.014Z,652.00
2023-05-10T10:35:34.062Z,662.00
2023-05-10T10:36:34.116Z,664.00
2023-05-10T10:37:34.300Z,671.00
2023-05-10T10:38:34.330Z,668.00
2023-05-10T10:39:34.335Z,660.00
2023-05-10T10:40:35.057Z,661.00
2023-05-10T10:41:34.442Z,678.00
2023-05-10T10:42:34.473Z,677.00
2023-05-10T10:43:34.508Z,668.00
2023-05-10T10:44:34.571Z,653.00
2023-05-10T10:45:34.642Z,680.00
2023-05-10T10:46:34.719Z,659.00
2023-05-10T10:47:34.748Z,697.00
2023-05-10T10:48:34.801Z,692.00
2023-05-10T10:49:34.866Z,647.00
2023-05-10T10:50:34.938Z,668.00
2023-05-10T10:51:35.061Z,706.00
2023-05-10T10:52:35.017Z,673.00
2023-05-10T10:53:35.082Z,655.00
2023-05-10T10:54:35.171Z,659.00
2023-05-10T10:55:35.202Z,678.00
2023-05-10T10:56:37.100Z,698.00
2023-05-10T10:57:35.322Z,756.00
2023-05-10T10:58:35.412Z,763.00
2023-05-10T10:59:35.453Z,713.00
2023-05-10T11:00:35.656Z,772.00
2023-05-10T11:01:35.771Z,724.00
2023-05-10T11:02:35.674Z,766.00
2023-05-10T11:03:35.678Z,793.00
2023-05-10T11:04:35.863Z,778.00
2023-05-10T11:05:35.819Z,832.00
2023-05-10T11:06:35.980Z,847.00
2023-05-10T11:07:35.950Z,907.00
2023-05-10T11:08:38.220Z,1006.00
2023-05-10T11:09:36.042Z,980.00
2023-05-10T11:10:36.115Z,1043.00
2023-05-10T11:11:36.188Z,996.00
2023-05-10T11:12:36.250Z,1049.00
2023-05-10T11:13:36.259Z,1080.00
2023-05-10T11:14:36.330Z,1127.00
2023-05-10T11:15:36.434Z,1173.00
2023-05-10T11:16:36.472Z,1197.00
2023-05-10T11:17:36.544Z,1221.00
2023-05-10T11:18:36.563Z,1264.00
2023-05-10T11:19:36.548Z,1303.00
2023-05-10T11:20:36.625Z,1326.00
2023-05-10T11:21:36.665Z,1344.00
2023-05-10T11:22:36.693Z,1324.00
2023-05-10T11:23:36.729Z,1328.00
2023-05-10T11:24:36.887Z,1333.00
2023-05-10T11:25:36.827Z,1342.00
2023-05-10T11:26:36.930Z,1365.00
2023-05-10T11:27:36.981Z,1371.00
2023-05-10T11:28:36.993Z,1364.00
2023-05-10T11:29:37.075Z,1365.00
2023-05-10T11:30:37.154Z,1389.00
2023-05-10T11:31:37.183Z,1376.00
2023-05-10T11:32:37.255Z,1378.00
2023-05-10T11:33:37.306Z,1390.00
2023-05-10T11:34:37.376Z,1383.00
2023-05-10T11:35:37.431Z,1400.00
2023-05-10T11:36:37.550Z,1407.00
2023-05-10T11:37:37.560Z,1391.00
2023-05-10T11:38:37.581Z,1400.00
2023-05-10T11:39:37.640Z,1443.00
2023-05-10T11:40:37.701Z,1437.00
2023-05-10T11:41:37.775Z,1408.00
2023-05-10T11:42:37.815Z,1422.00
2023-05-10T11:43:37.867Z,1416.00
2023-05-10T11:44:37.889Z,1422.00
2023-05-10T11:45:37.973Z,1420.00
2023-05-10T11:46:38.083Z,1440.00
2023-05-10T11:47:38.059Z,1447.00
2023-05-10T11:48:38.036Z,1421.00
2023-05-10T11:49:38.042Z,1409.00
2023-05-10T11:50:38.073Z,1430.00
2023-05-10T11:51:38.086Z,1426.00
2023-05-10T11:52:38.064Z,1472.00
2023-05-10T11:53:38.074Z,1430.00
2023-05-10T11:54:38.135Z,1435.00
2023-05-10T11:55:38.108Z,1442.00
2023-05-10T11:56:38.089Z,1444.00
2023-05-10T11:57:38.087Z,1430.00
2023-05-10T11:58:38.121Z,1422.00
2023-05-10T11:59:38.079Z,1436.00
2023-05-10T12:00:38.079Z,1414.00
2023-05-10T12:01:38.109Z,1417.00
2023-05-10T12:02:38.169Z,1460.00
2023-05-10T12:03:38.218Z,1419.00
2023-05-10T12:04:38.149Z,1419.00
2023-05-10T12:05:38.070Z,1455.00
2023-05-10T12:06:38.136Z,1415.00
2023-05-10T12:07:38.063Z,1459.00
2023-05-10T12:08:38.086Z,1444.00
2023-05-10T12:09:43.749Z,1460.00
2023-05-10T12:10:39.054Z,1448.00
2023-05-10T12:11:38.058Z,1460.00
2023-05-10T12:12:38.061Z,1460.00
2023-05-10T12:13:38.059Z,1435.00
2023-05-10T12:14:38.054Z,1439.00
2023-05-10T12:15:38.070Z,1439.00
2023-05-10T12:16:38.064Z,1463.00
2023-05-10T12:17:38.051Z,1415.00
2023-05-10T12:18:38.061Z,1421.00
2023-05-10T12:19:38.026Z,1425.00
2023-05-10T12:20:38.010Z,1429.00
2023-05-10T12:21:38.019Z,1441.00
2023-05-10T12:22:37.985Z,1430.00
2023-05-10T12:23:37.967Z,1436.00
2023-05-10T12:24:37.996Z,1421.00
2023-05-10T12:25:37.997Z,1433.00
2023-05-10T12:26:37.991Z,1428.00
2023-05-10T12:27:37.946Z,1437.00
2023-05-10T12:28:37.954Z,1418.00
2023-05-10T12:29:37.986Z,1442.00
2023-05-10T12:30:37.934Z,1425.00
2023-05-10T12:31:37.939Z,1425.00
2023-05-10T12:32:37.962Z,1417.00
2023-05-10T12:33:37.909Z,1431.00